Time;durP1;ratioP1;P1;durP2;ratioP2;P2;SDS_P1;SDS_P2;PMS_P1;PMS_P2;Temp;Humidity;BMP_temperature;BMP_pressure;BME280_temperature;BME280_humidity;BME280_pressure;Samples;Min_cycle;Max_cycle;Signal;HPM_P1;HPM_P2
2022/06/06 04:05:24;;;;;;;2.87;2.77;;;14.30;99.90;;;;;;4995518;23;20474;-70
2022/06/06 04:07:50;;;;;;;2.83;2.63;;;14.30;99.90;;;;;;4993040;28;20778;-70
2022/06/06 04:10:16;;;;;;;3.10;2.90;;;14.40;99.90;;;;;;4994384;28;20403;-70
2022/06/06 04:13:19;;;;;;;3.33;3.03;;;14.40;99.90;;;;;;4994070;28;20433;-69
2022/06/06 04:16:17;;;;;;;3.80;3.50;;;14.50;99.90;;;;;;4994049;28;20530;-70
2022/06/06 04:18:51;;;;;;;2.57;2.37;;;14.60;99.90;;;;;;4963499;28;20422;-68
2022/06/06 04:21:56;;;;;;;2.13;2.03;;;14.70;99.90;;;;;;4978193;28;20513;-70
2022/06/06 04:24:46;;;;;;;5.20;2.90;;;14.70;99.90;;;;;;4974379;28;20397;-70
2022/06/06 04:27:33;;;;;;;2.83;2.73;;;14.80;99.90;;;;;;4975070;28;20416;-69
2022/06/06 04:30:12;;;;;;;2.77;2.57;;;14.90;99.90;;;;;;4974677;28;20407;-70
2022/06/06 04:33:04;;;;;;;3.50;2.93;;;15.00;99.90;;;;;;4973919;28;20454;-69
2022/06/06 04:35:36;;;;;;;3.03;2.80;;;15.20;99.90;;;;;;4973742;28;20451;-70
2022/06/06 04:38:17;;;;;;;3.30;2.53;;;15.30;99.90;;;;;;4974706;28;20412;-69
2022/06/06 04:40:48;;;;;;;3.80;3.50;;;15.40;99.90;;;;;;4988030;28;20435;-70
2022/06/06 04:43:39;;;;;;;3.30;3.10;;;15.60;99.90;;;;;;4993493;28;20374;-70
2022/06/06 04:46:40;;;;;;;2.90;2.70;;;15.70;99.90;;;;;;4993791;28;20476;-69
2022/06/06 04:49:07;;;;;;;3.20;3.00;;;15.70;99.90;;;;;;4993888;28;20488;-71
2022/06/06 04:51:34;;;;;;;2.47;2.13;;;15.90;99.90;;;;;;4994067;28;20880;-71
2022/06/06 04:54:01;;;;;;;3.30;2.93;;;16.00;99.90;;;;;;4991062;28;20939;-69
2022/06/06 04:56:27;;;;;;;2.40;2.30;;;16.00;99.90;;;;;;4974694;28;20919;-68
2022/06/06 04:58:56;;;;;;;2.60;2.40;;;16.10;99.90;;;;;;4974500;28;20371;-69
2022/06/06 05:01:24;;;;;;;6.00;2.43;;;16.20;99.90;;;;;;4974451;28;20438;-71
2022/06/06 05:03:50;;;;;;;2.07;1.97;;;16.30;99.90;;;;;;4973961;28;20416;-70
2022/06/06 05:06:29;;;;;;;2.70;2.50;;;16.50;99.90;;;;;;4974230;28;20400;-69
2022/06/06 05:09:19;;;;;;;2.10;2.00;;;16.60;99.90;;;;;;4977623;28;20565;-69
2022/06/06 05:12:09;;;;;;;2.70;2.50;;;16.90;99.90;;;;;;4993723;28;20417;-70
2022/06/06 05:14:57;;;;;;;4.70;2.27;;;17.10;99.90;;;;;;4993472;28;20929;-70
2022/06/06 05:17:56;;;;;;;2.37;2.17;;;17.30;99.90;;;;;;4989519;28;20394;-71
2022/06/06 05:20:24;;;;;;;2.03;1.90;;;17.40;99.90;;;;;;4974228;28;20743;-70
2022/06/06 05:22:50;;;;;;;4.40;2.77;;;17.50;99.90;;;;;;4973869;28;20383;-69
2022/06/06 05:25:24;;;;;;;2.70;2.50;;;17.70;99.90;;;;;;4974112;28;20487;-69
2022/06/06 05:28:27;;;;;;;2.10;2.00;;;17.90;99.90;;;;;;4974180;28;20180;-70
2022/06/06 05:30:53;;;;;;;2.60;1.63;;;18.10;99.90;;;;;;4974196;28;20457;-70
2022/06/06 05:33:25;;;;;;;2.00;1.90;;;18.20;99.90;;;;;;4974677;28;20970;-71
2022/06/06 05:36:12;;;;;;;2.57;2.40;;;18.20;99.90;;;;;;4989140;28;20552;-69
2022/06/06 05:38:52;;;;;;;2.63;2.43;;;18.20;99.90;;;;;;4996957;28;20399;-69
2022/06/06 05:41:29;;;;;;;2.80;2.60;;;18.30;99.90;;;;;;4997196;28;20501;-69
2022/06/06 05:44:19;;;;;;;1.90;1.80;;;18.40;99.90;;;;;;4996359;28;20406;-72
2022/06/06 05:47:05;;;;;;;1.60;1.50;;;18.40;99.90;;;;;;4993498;28;20395;-70
2022/06/06 05:49:53;;;;;;;2.90;2.50;;;18.40;99.90;;;;;;4977451;28;20441;-70
2022/06/06 05:52:22;;;;;;;2.07;1.97;;;18.40;99.90;;;;;;4976976;28;20756;-69
2022/06/06 05:54:54;;;;;;;2.40;2.20;;;18.60;99.90;;;;;;4977078;28;20476;-70
2022/06/06 05:57:40;;;;;;;2.07;1.97;;;18.80;99.90;;;;;;4977232;28;20396;-72
2022/06/06 06:00:19;;;;;;;2.33;2.13;;;18.80;99.90;;;;;;4977374;28;20379;-71
2022/06/06 06:02:59;;;;;;;1.73;1.67;;;18.90;99.90;;;;;;4990227;28;20841;-70
2022/06/06 06:05:34;;;;;;;2.30;2.20;;;19.00;99.90;;;;;;4996505;28;20932;-72
2022/06/06 06:08:06;;;;;;;1.90;1.80;;;19.10;99.90;;;;;;4996589;28;20389;-73
2022/06/06 06:10:34;;;;;;;2.63;2.43;;;19.10;99.90;;;;;;4987195;28;20419;-69
2022/06/06 06:13:21;;;;;;;2.67;2.47;;;19.20;99.90;;;;;;4976729;28;20462;-69
2022/06/06 06:15:51;;;;;;;1.80;1.70;;;19.30;99.90;;;;;;4976914;28;20463;-69
2022/06/06 06:18:36;;;;;;;3.93;1.87;;;19.40;99.90;;;;;;4977156;28;20896;-72
2022/06/06 06:21:12;;;;;;;2.23;2.13;;;19.40;99.90;;;;;;4975258;28;20418;-69
2022/06/06 06:23:43;;;;;;;2.20;2.00;;;19.40;99.90;;;;;;4976335;28;20819;-72
2022/06/06 06:26:11;;;;;;;1.83;1.73;;;19.40;99.90;;;;;;4984637;28;20909;-71
2022/06/06 06:28:37;;;;;;;1.63;1.57;;;19.50;99.90;;;;;;4976748;28;20463;-70
2022/06/06 06:31:23;;;;;;;1.97;1.87;;;19.70;99.90;;;;;;4976775;28;20378;-68
2022/06/06 06:34:34;;;;;;;3.00;2.70;;;19.80;99.90;;;;;;4975578;28;20416;-72
2022/06/06 06:37:12;;;;;;;1.80;1.70;;;19.90;99.90;;;;;;4976357;28;20390;-69
2022/06/06 06:39:43;;;;;;;1.40;1.37;;;20.00;99.90;;;;;;4982155;28;20420;-70
2022/06/06 06:42:41;;;;;;;2.20;2.10;;;20.00;99.90;;;;;;4982848;28;20521;-72
2022/06/06 06:45:16;;;;;;;2.50;2.23;;;20.00;99.90;;;;;;4979593;28;20442;-70
2022/06/06 06:47:49;;;;;;;2.50;2.30;;;20.10;99.90;;;;;;4976158;28;20873;-71
2022/06/06 06:50:21;;;;;;;2.57;2.37;;;20.10;99.90;;;;;;4974888;28;20390;-70
2022/06/06 06:53:08;;;;;;;2.30;2.20;;;20.20;99.90;;;;;;4975791;28;20757;-68
2022/06/06 06:55:47;;;;;;;2.23;2.13;;;20.20;99.90;;;;;;4978419;28;20831;-70
2022/06/06 06:58:36;;;;;;;2.57;2.33;;;20.40;99.90;;;;;;4976420;28;20399;-70
2022/06/06 07:01:12;;;;;;;4.17;2.37;;;20.70;99.90;;;;;;4976131;28;20371;-68
2022/06/06 07:09:46;;;;;;;2.27;2.10;;;21.50;99.90;;;;;;4984918;28;20414;-71
2022/06/06 07:12:34;;;;;;;2.20;2.10;;;21.80;99.90;;;;;;4994804;28;20384;-69
2022/06/06 07:15:27;;;;;;;2.20;2.00;;;22.00;99.90;;;;;;4994964;28;20464;-71
2022/06/06 07:17:59;;;;;;;3.63;2.20;;;22.10;99.90;;;;;;4994917;28;20481;-72
2022/06/06 07:20:26;;;;;;;2.47;2.37;;;22.20;99.90;;;;;;4995306;28;20382;-69
2022/06/06 07:23:03;;;;;;;2.87;2.67;;;22.50;99.90;;;;;;4994776;28;20380;-68
2022/06/06 07:25:39;;;;;;;3.27;3.07;;;22.80;99.90;;;;;;4975677;28;20447;-69
2022/06/06 07:28:07;;;;;;;3.10;2.90;;;23.10;99.90;;;;;;4989976;28;20757;-67
2022/06/06 07:30:38;;;;;;;3.57;2.97;;;23.30;99.90;;;;;;4994325;28;20411;-70
2022/06/06 07:33:36;;;;;;;2.60;2.40;;;23.50;99.90;;;;;;4994610;28;20399;-69
2022/06/06 07:36:04;;;;;;;2.23;2.03;;;23.70;99.90;;;;;;4979422;28;20595;-70
2022/06/06 07:38:33;;;;;;;2.30;2.10;;;23.80;99.90;;;;;;4977337;28;20431;-70
2022/06/06 07:41:13;;;;;;;3.57;2.47;;;24.00;99.90;;;;;;4975157;28;20378;-71
2022/06/06 07:43:45;;;;;;;2.53;2.43;;;24.00;99.90;;;;;;4977679;28;20506;-72
2022/06/06 07:46:30;;;;;;;2.63;2.30;;;24.10;99.90;;;;;;4991081;28;20770;-73
2022/06/06 07:49:08;;;;;;;3.30;2.63;;;24.20;99.90;;;;;;4989333;28;20447;-72
2022/06/06 07:51:44;;;;;;;5.60;5.03;;;24.20;99.90;;;;;;4975374;28;20421;-72
2022/06/06 07:54:48;;;;;;;3.23;3.03;;;24.30;99.90;;;;;;4980225;28;20415;-71
2022/06/06 07:57:22;;;;;;;2.70;2.50;;;24.50;99.90;;;;;;4926419;29;20416;-71
2022/06/06 08:00:03;;;;;;;2.43;2.33;;;25.00;99.90;;;;;;4933968;29;20410;-70
2022/06/06 08:02:53;;;;;;;3.87;2.60;;;25.90;99.90;;;;;;4962639;28;20980;-70
2022/06/06 08:05:35;;;;;;;2.97;2.77;;;26.80;99.70;;;;;;4994177;28;20434;-69
2022/06/06 08:08:04;;;;;;;2.57;2.43;;;27.50;97.70;;;;;;4976517;28;20424;-68
2022/06/06 08:10:43;;;;;;;3.00;2.80;;;27.90;98.30;;;;;;4974960;28;20374;-71
2022/06/06 08:13:36;;;;;;;2.70;2.50;;;28.40;96.10;;;;;;4987237;28;20993;-70
2022/06/06 08:16:23;;;;;;;3.00;2.70;;;28.90;96.30;;;;;;4993885;28;20505;-68
2022/06/06 08:19:13;;;;;;;2.33;2.23;;;29.50;95.20;;;;;;4974722;28;20411;-68
2022/06/06 08:21:49;;;;;;;2.40;2.27;;;30.30;93.90;;;;;;4989137;28;20423;-70
2022/06/06 08:24:27;;;;;;;4.97;4.57;;;31.10;91.10;;;;;;4985513;28;20537;-67
2022/06/06 08:26:55;;;;;;;2.97;2.77;;;31.30;90.40;;;;;;4974169;28;20473;-70
2022/06/06 08:29:22;;;;;;;2.30;2.20;;;31.50;90.90;;;;;;4974428;28;20527;-67
2022/06/06 08:31:49;;;;;;;3.23;3.03;;;32.00;88.50;;;;;;4979115;28;20767;-67
2022/06/06 08:34:15;;;;;;;2.60;2.40;;;32.40;87.20;;;;;;4993191;28;20977;-69
2022/06/06 08:36:58;;;;;;;3.03;2.83;;;32.80;84.90;;;;;;4982727;28;20419;-70
2022/06/06 08:39:52;;;;;;;2.20;2.10;;;33.20;82.90;;;;;;4977646;28;20178;-70
2022/06/06 08:42:39;;;;;;;2.83;2.63;;;33.80;80.60;;;;;;4985448;28;20507;-70
2022/06/06 08:45:28;;;;;;;2.20;2.10;;;34.40;76.70;;;;;;4979821;28;20442;-70
2022/06/06 08:48:11;;;;;;;2.20;2.10;;;34.40;75.90;;;;;;4977510;28;20779;-70
2022/06/06 08:50:58;;;;;;;3.10;2.80;;;33.90;75.00;;;;;;4985997;28;20462;-71
2022/06/06 08:53:43;;;;;;;2.57;2.47;;;34.00;78.50;;;;;;4979129;28;20427;-72
2022/06/06 08:56:31;;;;;;;3.50;3.30;;;33.60;75.80;;;;;;4978204;28;20455;-69
2022/06/06 08:59:18;;;;;;;4.07;3.60;;;33.00;78.60;;;;;;4973868;28;20418;-69
2022/06/06 09:02:17;;;;;;;3.03;2.73;;;31.90;79.20;;;;;;4989540;28;20823;-71
2022/06/06 09:05:10;;;;;;;3.17;2.87;;;30.80;81.50;;;;;;4982942;28;20830;-73
2022/06/06 09:07:49;;;;;;;4.03;2.50;;;30.00;84.80;;;;;;4987081;28;20775;-72
2022/06/06 09:10:21;;;;;;;3.30;3.10;;;29.80;88.00;;;;;;4989752;28;20426;-71
2022/06/06 09:13:18;;;;;;;2.73;2.53;;;30.30;89.10;;;;;;4996851;28;20718;-72
2022/06/06 09:16:30;;;;;;;2.23;2.03;;;30.70;81.80;;;;;;4980863;28;20462;-70
2022/06/06 09:19:33;;;;;;;2.07;1.97;;;31.40;80.10;;;;;;4981003;28;20431;-70
2022/06/06 09:22:23;;;;;;;1.93;1.83;;;32.50;74.60;;;;;;4981494;28;20414;-72
2022/06/06 09:25:09;;;;;;;2.40;2.07;;;33.20;70.60;;;;;;4991807;28;20490;-75
2022/06/06 09:27:54;;;;;;;2.03;1.93;;;33.90;69.80;;;;;;4980106;28;20435;-71
2022/06/06 09:30:31;;;;;;;1.83;1.73;;;34.40;65.80;;;;;;4990096;28;20414;-72
2022/06/06 09:33:33;;;;;;;1.97;1.87;;;34.10;66.80;;;;;;4990205;28;20418;-68
2022/06/06 09:36:17;;;;;;;3.07;2.20;;;33.80;66.30;;;;;;4996436;28;20595;-70
2022/06/06 09:39:14;;;;;;;1.77;1.67;;;32.90;68.30;;;;;;4978323;28;20459;-68
2022/06/06 09:41:49;;;;;;;2.30;2.10;;;33.30;70.00;;;;;;4948470;28;20471;-70
2022/06/06 09:44:41;;;;;;;1.70;1.60;;;34.10;65.80;;;;;;4975320;28;20439;-71
2022/06/06 09:47:23;;;;;;;2.23;2.13;;;35.00;64.60;;;;;;4968892;28;20423;-75
2022/06/06 09:49:58;;;;;;;3.40;3.10;;;35.80;63.50;;;;;;4980273;28;20421;-70
2022/06/06 09:52:26;;;;;;;1.90;1.80;;;36.60;60.00;;;;;;4989663;28;21255;-71
2022/06/06 10:01:09;;;;;;;2.13;2.03;;;37.20;58.40;;;;;;4991862;28;20504;-73
2022/06/06 10:03:52;;;;;;;2.00;1.90;;;37.40;56.80;;;;;;4976823;28;20439;-70
2022/06/06 10:06:46;;;;;;;2.10;2.00;;;37.40;56.00;;;;;;4977795;28;20447;-70
2022/06/06 10:09:29;;;;;;;1.57;1.57;;;37.50;54.90;;;;;;4977951;28;20420;-68
2022/06/06 10:12:33;;;;;;;2.40;2.30;;;36.90;54.00;;;;;;4995093;28;20414;-68
2022/06/06 10:15:35;;;;;;;2.40;2.20;;;35.80;55.60;;;;;;4920968;29;20466;-67
2022/06/06 10:18:48;;;;;;;2.67;2.57;;;35.70;56.30;;;;;;4916837;29;20802;-68
2022/06/06 10:22:00;;;;;;;2.70;1.90;;;36.20;55.00;;;;;;4976596;28;20494;-68
2022/06/06 10:24:38;;;;;;;1.90;1.80;;;36.00;55.60;;;;;;4930290;28;20582;-68
2022/06/06 10:27:19;;;;;;;2.60;1.80;;;35.80;55.20;;;;;;4976610;28;20780;-69
2022/06/06 10:30:12;;;;;;;2.00;1.90;;;35.60;54.50;;;;;;4976303;28;20421;-68
2022/06/06 10:33:14;;;;;;;1.87;1.77;;;35.10;54.40;;;;;;4976082;28;20649;-68
2022/06/06 10:35:57;;;;;;;2.10;2.00;;;34.80;56.40;;;;;;4975982;28;20455;-68
2022/06/06 10:38:49;;;;;;;2.60;2.40;;;34.40;55.70;;;;;;4986830;28;20522;-68
2022/06/06 10:41:33;;;;;;;3.13;2.83;;;33.80;55.20;;;;;;4995417;28;20410;-67
2022/06/06 10:44:07;;;;;;;2.07;1.97;;;33.20;55.30;;;;;;4982899;28;20526;-65
2022/06/06 10:47:07;;;;;;;2.50;2.30;;;32.90;56.50;;;;;;4978209;28;21005;-66
2022/06/06 10:50:15;;;;;;;2.00;1.90;;;32.90;57.00;;;;;;4976016;28;20400;-67
2022/06/06 10:53:15;;;;;;;2.50;2.30;;;33.20;57.50;;;;;;4975821;28;20415;-67
2022/06/06 10:55:59;;;;;;;1.73;1.63;;;33.30;58.20;;;;;;4982659;28;20470;-68
2022/06/06 10:58:51;;;;;;;1.90;1.80;;;33.20;56.70;;;;;;4993476;28;20422;-67
2022/06/06 11:01:53;;;;;;;1.80;1.70;;;32.50;56.50;;;;;;4980776;28;20416;-67
2022/06/06 11:04:40;;;;;;;1.73;1.63;;;31.30;58.30;;;;;;4975307;28;20557;-67
2022/06/06 11:07:15;;;;;;;1.83;1.73;;;30.50;60.10;;;;;;4992708;28;20434;-68
2022/06/06 11:09:52;;;;;;;1.50;1.40;;;29.90;63.60;;;;;;4994786;28;20434;-67
2022/06/06 11:12:30;;;;;;;1.40;1.33;;;29.90;64.80;;;;;;4975769;28;20804;-67
2022/06/06 11:14:59;;;;;;;1.80;1.70;;;29.90;63.00;;;;;;4980377;28;20460;-67
2022/06/06 11:17:37;;;;;;;2.03;1.60;;;29.70;62.60;;;;;;4976464;28;20416;-69
2022/06/06 11:20:21;;;;;;;2.17;1.60;;;29.60;64.40;;;;;;4975368;28;20404;-69
2022/06/06 11:23:02;;;;;;;1.67;1.57;;;29.40;66.40;;;;;;4975156;28;20408;-67
2022/06/06 11:25:47;;;;;;;1.90;1.80;;;29.30;64.10;;;;;;4977794;28;20447;-69
2022/06/06 11:28:50;;;;;;;2.50;2.30;;;29.20;66.60;;;;;;4993583;28;20879;-67
2022/06/06 11:31:39;;;;;;;1.73;1.63;;;28.90;67.50;;;;;;4983542;28;20437;-68
2022/06/06 11:34:10;;;;;;;1.70;1.60;;;28.80;64.80;;;;;;4993357;28;20426;-66
2022/06/06 11:36:55;;;;;;;2.50;2.23;;;28.70;66.60;;;;;;4984009;28;20419;-67
2022/06/06 11:39:48;;;;;;;2.20;2.10;;;28.70;67.80;;;;;;4975368;28;20754;-69
2022/06/06 11:42:17;;;;;;;1.93;1.77;;;28.70;67.30;;;;;;4989402;28;20406;-67
2022/06/06 11:45:12;;;;;;;1.90;1.80;;;28.50;68.20;;;;;;4986346;28;21008;-68
2022/06/06 11:48:01;;;;;;;1.87;1.77;;;28.60;65.20;;;;;;4977631;28;20412;-67
2022/06/06 11:50:57;;;;;;;1.93;1.83;;;28.60;64.70;;;;;;4975078;28;20382;-69
2022/06/06 11:53:46;;;;;;;2.00;1.90;;;28.50;66.30;;;;;;4973800;28;20760;-69
2022/06/06 11:56:39;;;;;;;1.63;1.53;;;28.20;69.00;;;;;;4979518;28;20433;-67
2022/06/06 11:59:20;;;;;;;1.80;1.70;;;28.10;67.50;;;;;;4989027;28;20428;-69
2022/06/06 12:02:04;;;;;;;1.80;1.70;;;28.00;68.40;;;;;;4983738;28;20422;-67
2022/06/06 12:04:56;;;;;;;2.20;2.10;;;28.00;68.00;;;;;;4993992;28;20397;-67
2022/06/06 12:07:33;;;;;;;3.00;1.63;;;27.90;67.20;;;;;;4970685;28;20932;-70
2022/06/06 12:10:13;;;;;;;1.70;1.60;;;27.60;67.30;;;;;;4994143;28;20781;-69
2022/06/06 12:13:02;;;;;;;2.10;2.00;;;27.40;68.50;;;;;;4978307;28;20447;-68
2022/06/06 12:15:37;;;;;;;2.10;2.00;;;27.30;68.80;;;;;;4992664;28;20855;-67
2022/06/06 12:18:20;;;;;;;1.80;1.70;;;27.20;68.40;;;;;;4990309;28;20393;-69
2022/06/06 12:21:23;;;;;;;1.47;1.37;;;27.10;67.60;;;;;;4994110;28;20383;-67
2022/06/06 12:24:08;;;;;;;1.73;1.63;;;26.90;67.70;;;;;;4973967;28;20878;-68
2022/06/06 12:27:11;;;;;;;3.43;2.87;;;26.60;68.40;;;;;;4978749;28;20723;-67
2022/06/06 12:29:57;;;;;;;1.80;1.70;;;26.40;68.30;;;;;;4994229;28;20405;-69
2022/06/06 12:32:32;;;;;;;1.90;1.80;;;26.00;69.10;;;;;;4974140;28;21038;-68
2022/06/06 12:35:03;;;;;;;1.43;1.33;;;25.90;70.60;;;;;;4974169;28;20430;-69
2022/06/06 12:37:55;;;;;;;1.70;1.60;;;25.70;70.90;;;;;;4974526;28;20839;-67
2022/06/06 12:40:26;;;;;;;1.67;1.57;;;25.50;70.80;;;;;;4982125;28;21025;-68
2022/06/06 12:43:09;;;;;;;1.73;1.47;;;25.30;71.30;;;;;;4974097;28;20789;-68
2022/06/06 12:45:56;;;;;;;2.00;1.80;;;25.20;71.70;;;;;;4977895;28;20445;-67
2022/06/06 12:48:31;;;;;;;1.90;1.80;;;25.10;74.30;;;;;;4997796;28;20390;-68
2022/06/06 12:51:14;;;;;;;1.50;1.50;;;25.30;75.40;;;;;;4991336;28;20472;-68
2022/06/06 12:53:56;;;;;;;1.37;1.27;;;25.50;73.40;;;;;;4977967;28;20908;-67
2022/06/06 12:56:39;;;;;;;2.70;2.37;;;25.70;72.60;;;;;;4987268;28;20481;-68
2022/06/06 12:59:05;;;;;;;2.70;2.50;;;25.90;71.90;;;;;;4997809;28;20419;-67
2022/06/06 13:01:41;;;;;;;2.57;2.00;;;26.00;72.80;;;;;;4987464;28;20400;-68
2022/06/06 13:04:18;;;;;;;1.60;1.50;;;26.10;74.30;;;;;;4977717;28;20421;-70
2022/06/06 13:06:47;;;;;;;2.00;1.90;;;26.20;70.40;;;;;;4988847;28;20431;-69
2022/06/06 13:09:54;;;;;;;1.70;1.60;;;26.00;73.80;;;;;;4991891;28;20396;-67
2022/06/06 13:12:50;;;;;;;1.50;1.40;;;26.00;74.60;;;;;;4969743;28;20419;-66
2022/06/06 13:15:47;;;;;;;1.37;1.27;;;25.90;70.60;;;;;;4997089;28;20447;-67
2022/06/06 13:18:49;;;;;;;1.73;1.63;;;26.00;73.60;;;;;;4978017;28;20924;-67
2022/06/06 13:21:38;;;;;;;1.83;1.73;;;26.20;71.80;;;;;;4983222;28;20912;-67
2022/06/06 13:24:29;;;;;;;1.77;1.67;;;26.40;74.20;;;;;;4988969;28;20448;-69
2022/06/06 13:27:30;;;;;;;2.90;1.90;;;26.40;73.00;;;;;;4993300;28;20395;-67
2022/06/06 13:30:17;;;;;;;2.07;1.97;;;26.20;74.20;;;;;;4994908;28;20424;-69
2022/06/06 13:33:09;;;;;;;2.00;1.87;;;26.10;74.90;;;;;;4977434;28;20420;-68
2022/06/06 13:35:50;;;;;;;9.07;7.90;;;25.80;74.50;;;;;;4977950;28;20804;-67
2022/06/06 13:38:22;;;;;;;2.40;2.20;;;25.40;75.40;;;;;;4979608;28;20428;-67
2022/06/06 13:41:02;;;;;;;2.10;2.00;;;25.10;77.10;;;;;;4988722;28;20390;-66
2022/06/06 13:43:37;;;;;;;2.67;1.40;;;24.70;79.30;;;;;;4977264;28;20371;-66
2022/06/06 13:46:22;;;;;;;1.47;1.37;;;24.40;80.10;;;;;;4986740;28;20771;-68
2022/06/06 13:49:22;;;;;;;1.37;1.33;;;24.10;80.80;;;;;;4996979;28;20390;-67
2022/06/06 13:52:06;;;;;;;1.90;1.80;;;23.80;80.00;;;;;;4991926;28;20741;-66
2022/06/06 13:54:34;;;;;;;1.17;1.17;;;23.70;79.60;;;;;;4996515;28;20446;-67
2022/06/06 13:57:30;;;;;;;1.23;1.13;;;23.60;78.90;;;;;;4979634;28;20473;-68
2022/06/06 14:00:22;;;;;;;1.30;1.20;;;23.40;77.60;;;;;;4977112;28;20937;-68
2022/06/06 14:03:19;;;;;;;1.90;1.80;;;23.20;77.40;;;;;;4976799;28;20417;-68
2022/06/06 14:06:01;;;;;;;1.33;1.27;;;23.10;77.10;;;;;;4985609;28;20457;-66
2022/06/06 14:08:47;;;;;;;1.57;1.37;;;23.00;77.70;;;;;;4975923;28;20780;-69
2022/06/06 14:11:30;;;;;;;1.23;1.20;;;22.80;78.80;;;;;;4984833;28;20430;-66
2022/06/06 14:14:00;;;;;;;1.60;1.50;;;22.70;79.20;;;;;;4995876;28;20825;-67
2022/06/06 14:16:44;;;;;;;1.27;1.20;;;22.60;79.40;;;;;;4986584;28;20906;-66
2022/06/06 14:19:20;;;;;;;3.67;1.43;;;22.50;80.90;;;;;;4980640;28;20496;-67
2022/06/06 14:22:01;;;;;;;2.33;1.40;;;22.50;80.80;;;;;;4983483;28;20437;-70
2022/06/06 14:24:29;;;;;;;1.27;1.17;;;22.50;80.90;;;;;;4979553;28;20440;-67
2022/06/06 14:27:00;;;;;;;1.50;1.50;;;22.60;81.30;;;;;;4996663;28;20407;-70
2022/06/06 14:29:52;;;;;;;1.60;1.50;;;22.70;81.50;;;;;;4991594;28;20784;-67
2022/06/06 14:32:47;;;;;;;1.33;1.30;;;22.80;83.60;;;;;;4975731;28;20798;-66
2022/06/06 14:35:15;;;;;;;1.30;1.30;;;22.80;84.10;;;;;;4985817;28;20463;-67
2022/06/06 14:37:42;;;;;;;1.57;1.47;;;22.90;83.60;;;;;;4995896;28;20510;-67
2022/06/06 14:40:11;;;;;;;1.57;1.37;;;22.90;85.00;;;;;;4987109;28;20732;-65
2022/06/06 14:42:53;;;;;;;1.50;1.40;;;22.90;84.80;;;;;;4976352;28;20906;-69
2022/06/06 14:45:35;;;;;;;2.40;2.23;;;23.00;86.00;;;;;;4976567;28;20427;-68
2022/06/06 14:48:05;;;;;;;1.90;1.30;;;23.10;85.10;;;;;;4991555;28;20517;-67
2022/06/06 14:50:45;;;;;;;1.77;1.67;;;23.30;85.00;;;;;;4995030;28;20962;-66
2022/06/06 14:53:18;;;;;;;2.00;1.90;;;23.40;85.10;;;;;;4995223;28;20461;-67
2022/06/06 14:55:51;;;;;;;3.17;1.90;;;23.60;85.20;;;;;;4990659;28;20460;-70
2022/06/06 14:58:21;;;;;;;1.93;1.83;;;23.90;85.70;;;;;;4974693;28;20382;-68
2022/06/06 15:00:51;;;;;;;1.90;1.80;;;24.10;84.90;;;;;;4980716;28;20402;-69
2022/06/06 15:03:17;;;;;;;4.17;2.93;;;24.30;84.60;;;;;;4974421;28;20506;-64
2022/06/06 15:05:43;;;;;;;1.60;1.50;;;24.50;83.90;;;;;;4978697;28;20501;-68
2022/06/06 15:08:32;;;;;;;1.43;1.40;;;24.60;82.90;;;;;;4995184;28;20389;-68
2022/06/06 15:11:09;;;;;;;2.30;2.10;;;24.70;83.60;;;;;;4990778;28;20935;-67
2022/06/06 15:13:36;;;;;;;2.10;2.00;;;24.80;84.30;;;;;;4975392;28;20415;-65
2022/06/06 15:16:06;;;;;;;2.10;2.00;;;24.80;85.10;;;;;;4984345;28;20433;-68
2022/06/06 15:18:35;;;;;;;2.00;1.90;;;24.80;82.10;;;;;;4975871;28;20929;-67
2022/06/06 15:21:02;;;;;;;1.73;1.63;;;24.80;81.10;;;;;;4974850;28;20559;-66
2022/06/06 15:23:47;;;;;;;2.13;2.03;;;24.80;80.40;;;;;;4975255;28;20435;-69
2022/06/06 15:26:47;;;;;;;1.90;1.80;;;24.70;80.40;;;;;;4977265;28;20441;-68
2022/06/06 15:29:27;;;;;;;1.73;1.63;;;24.60;80.40;;;;;;4975882;28;20432;-67
2022/06/06 15:32:18;;;;;;;1.47;1.37;;;24.50;80.90;;;;;;4975586;28;20839;-68
2022/06/06 15:35:00;;;;;;;3.27;3.07;;;24.40;82.00;;;;;;4977079;28;20451;-66
2022/06/06 15:37:37;;;;;;;1.40;1.40;;;24.20;82.10;;;;;;4994932;28;20418;-69
2022/06/06 15:40:16;;;;;;;1.30;1.30;;;24.10;83.40;;;;;;4992703;28;20511;-67
2022/06/06 15:42:51;;;;;;;2.03;1.80;;;24.00;83.10;;;;;;4994733;28;21005;-67
2022/06/06 15:45:45;;;;;;;2.00;1.90;;;23.80;84.10;;;;;;4987260;28;20408;-68
2022/06/06 15:48:22;;;;;;;2.67;2.47;;;23.70;84.50;;;;;;4993113;28;20977;-68
2022/06/06 15:51:08;;;;;;;1.67;1.60;;;23.50;85.30;;;;;;4985594;28;20394;-66
2022/06/06 15:54:08;;;;;;;3.20;3.00;;;23.40;85.60;;;;;;4974748;28;20434;-69
2022/06/06 15:56:52;;;;;;;3.70;3.40;;;23.40;86.00;;;;;;4988853;28;20590;-68
2022/06/06 16:00:04;;;;;;;3.37;3.10;;;23.40;85.80;;;;;;4988180;28;20486;-70
2022/06/06 16:02:41;;;;;;;3.47;3.17;;;23.30;86.10;;;;;;4972092;28;20482;-67
2022/06/06 16:05:46;;;;;;;1.60;1.50;;;23.30;86.70;;;;;;4975171;28;20790;-67
2022/06/06 16:08:17;;;;;;;1.83;1.73;;;23.20;88.50;;;;;;4915222;29;20809;-67
2022/06/06 16:11:21;;;;;;;1.57;1.47;;;23.20;88.30;;;;;;4971970;28;20426;-68
2022/06/06 16:14:06;;;;;;;2.00;1.90;;;23.30;88.40;;;;;;4929237;29;20401;-67
2022/06/06 16:16:42;;;;;;;2.07;1.70;;;23.20;88.10;;;;;;4926107;29;20471;-67
2022/06/06 16:19:44;;;;;;;2.10;1.70;;;23.10;89.70;;;;;;4966853;28;20853;-70
2022/06/06 16:22:28;;;;;;;2.20;2.10;;;22.90;88.00;;;;;;4983080;28;20391;-69
2022/06/06 16:25:19;;;;;;;2.67;2.47;;;22.80;88.90;;;;;;4993789;28;20477;-71
2022/06/06 16:27:56;;;;;;;1.80;1.70;;;22.80;90.00;;;;;;4974257;28;20970;-70
2022/06/06 16:30:35;;;;;;;2.13;1.70;;;22.70;89.90;;;;;;4976095;28;20415;-71
2022/06/06 16:33:01;;;;;;;2.03;1.80;;;22.70;90.20;;;;;;4978187;28;20435;-71
2022/06/06 16:35:26;;;;;;;1.70;1.60;;;22.60;90.30;;;;;;4975151;28;20971;-71
2022/06/06 16:38:09;;;;;;;1.63;1.53;;;22.60;90.40;;;;;;4994156;28;20174;-71
2022/06/06 16:40:39;;;;;;;1.73;1.63;;;22.50;90.40;;;;;;4991940;28;20195;-70
2022/06/06 16:49:50;;;;;;;2.00;1.87;;;22.40;91.20;;;;;;4974260;28;20373;-70
2022/06/06 16:52:37;;;;;;;2.50;1.80;;;22.40;91.30;;;;;;4973103;28;20483;-69
2022/06/06 16:55:21;;;;;;;1.70;1.60;;;22.40;91.70;;;;;;4973966;28;20844;-73
2022/06/06 16:58:18;;;;;;;2.10;1.90;;;22.40;92.10;;;;;;4991602;28;20862;-68
2022/06/06 17:00:55;;;;;;;2.00;1.50;;;22.40;92.40;;;;;;4974509;28;20448;-68
2022/06/06 17:03:47;;;;;;;2.13;1.93;;;22.30;91.70;;;;;;4992864;28;20497;-71
2022/06/06 17:09:21;;;;;;;1.40;1.30;;;22.10;92.10;;;;;;4974018;28;20932;-71
2022/06/06 17:12:03;;;;;;;1.70;1.60;;;22.00;91.40;;;;;;4981924;28;20493;-70
2022/06/06 17:14:31;;;;;;;2.60;1.87;;;21.90;91.60;;;;;;4977536;28;20471;-70
2022/06/06 17:17:15;;;;;;;2.47;2.30;;;21.80;91.60;;;;;;4982356;28;20429;-73
2022/06/06 17:19:44;;;;;;;3.20;2.87;;;21.80;91.80;;;;;;4993628;28;20402;-70
2022/06/06 17:22:13;;;;;;;2.30;2.20;;;21.70;91.90;;;;;;4983097;28;20925;-67
2022/06/06 17:24:40;;;;;;;1.80;1.70;;;21.60;92.10;;;;;;4978046;28;20896;-70
2022/06/06 17:27:27;;;;;;;1.93;1.77;;;21.60;92.50;;;;;;4993401;28;20918;-71
2022/06/06 17:30:01;;;;;;;2.40;2.20;;;21.60;92.50;;;;;;4979855;28;20418;-70
2022/06/06 17:32:35;;;;;;;2.00;1.80;;;21.50;92.70;;;;;;4993836;28;20418;-68
2022/06/06 17:35:13;;;;;;;2.13;1.93;;;21.50;92.40;;;;;;4990482;28;20478;-72
2022/06/06 17:38:09;;;;;;;2.37;2.27;;;21.40;92.40;;;;;;4977561;28;20407;-69
2022/06/06 17:40:38;;;;;;;3.77;1.53;;;21.40;92.30;;;;;;4978466;28;20442;-73
2022/06/06 17:43:10;;;;;;;3.00;1.90;;;21.30;92.60;;;;;;4983299;28;20422;-73
2022/06/06 17:46:07;;;;;;;1.57;1.47;;;21.20;92.10;;;;;;4988611;28;20846;-74
2022/06/06 17:48:51;;;;;;;1.77;1.67;;;21.20;92.40;;;;;;4994623;28;20787;-69
2022/06/06 17:51:42;;;;;;;0.97;0.97;;;21.10;92.50;;;;;;4989534;28;20423;-72
2022/06/06 17:54:27;;;;;;;1.60;1.50;;;21.10;92.70;;;;;;4980255;28;20772;-68
2022/06/06 17:57:11;;;;;;;2.07;1.97;;;21.10;93.00;;;;;;4986444;28;20402;-73
2022/06/06 17:59:52;;;;;;;1.50;1.40;;;21.00;92.90;;;;;;4980716;28;20425;-64
2022/06/06 18:02:31;;;;;;;1.10;1.10;;;21.00;92.90;;;;;;4984088;28;20386;-65
2022/06/06 18:05:15;;;;;;;2.27;1.30;;;20.90;92.70;;;;;;4975762;28;20440;-68
2022/06/06 18:08:20;;;;;;;1.07;1.07;;;20.80;92.60;;;;;;4989626;28;21001;-67
2022/06/06 18:10:55;;;;;;;1.77;1.40;;;20.80;92.60;;;;;;4996392;28;20395;-65
2022/06/06 18:13:42;;;;;;;1.73;1.63;;;20.80;92.60;;;;;;4991170;28;20392;-65
2022/06/06 18:16:14;;;;;;;1.23;1.23;;;20.80;92.70;;;;;;4995536;28;20507;-65
2022/06/06 18:18:57;;;;;;;1.40;1.30;;;20.70;92.80;;;;;;4976753;28;20782;-67
2022/06/06 18:21:27;;;;;;;1.43;1.43;;;20.70;92.80;;;;;;4979313;28;20398;-66
2022/06/06 18:24:25;;;;;;;1.70;1.60;;;20.60;92.90;;;;;;4994414;28;20386;-65
2022/06/06 18:27:07;;;;;;;2.03;1.93;;;20.60;92.90;;;;;;4979612;28;20394;-67
2022/06/06 18:29:48;;;;;;;1.50;1.40;;;20.60;93.10;;;;;;4976889;28;20390;-66
2022/06/06 18:32:21;;;;;;;2.07;1.87;;;20.60;93.20;;;;;;4983197;28;20484;-71